Time;durP1;ratioP1;P1;durP2;ratioP2;P2;SDS_P1;SDS_P2;PMS_P1;PMS_P2;Temp;Humidity;BMP_temperature;BMP_pressure;BME280_temperature;BME280_humidity;BME280_pressure;Samples;Min_cycle;Max_cycle;Signal;HPM_P1;HPM_P2
2023/08/21 00:01:46;;;;;;;11.73;7.35;;;;;;;14.90;100.00;102269.16;10471004;28;20531;-66
2023/08/21 00:06:47;;;;;;;11.55;7.97;;;;;;;14.93;100.00;102271.44;10438333;28;20048;-67
2023/08/21 00:11:47;;;;;;;12.32;8.15;;;;;;;14.86;100.00;102254.09;10457675;28;20048;-67
2023/08/21 00:16:48;;;;;;;15.65;8.50;;;;;;;14.90;100.00;102260.81;10471767;28;20045;-67
2023/08/21 00:21:48;;;;;;;16.50;8.32;;;;;;;14.88;100.00;102258.31;10471070;28;20436;-67
2023/08/21 00:26:48;;;;;;;13.95;8.48;;;;;;;14.86;100.00;102254.97;10474766;28;20047;-67
2023/08/21 00:31:49;;;;;;;13.73;8.05;;;;;;;14.82;100.00;102259.31;10480795;28;20143;-66
2023/08/21 00:36:49;;;;;;;20.38;8.13;;;;;;;14.77;100.00;102261.16;10468279;28;20481;-67
2023/08/21 00:41:50;;;;;;;14.50;8.45;;;;;;;14.73;100.00;102258.88;10480723;28;20616;-67
2023/08/21 00:46:50;;;;;;;17.92;9.88;;;;;;;14.69;100.00;102256.84;10475099;28;20052;-67
2023/08/21 00:51:51;;;;;;;18.17;8.95;;;;;;;14.64;100.00;102268.69;10453807;28;20044;-67
2023/08/21 00:56:52;;;;;;;18.48;9.02;;;;;;;14.59;100.00;102265.78;10475786;28;20037;-67
2023/08/21 01:01:52;;;;;;;20.65;10.10;;;;;;;14.56;100.00;102266.31;10475480;28;20045;-67
2023/08/21 01:06:53;;;;;;;28.23;9.93;;;;;;;14.51;100.00;102263.38;10459748;28;20045;-67
2023/08/21 01:12:15;;;;;;;21.65;10.43;;;;;;;14.46;100.00;102261.38;10464312;28;20061;-66
2023/08/21 01:17:16;;;;;;;17.38;10.30;;;;;;;14.43;100.00;102267.41;10448023;28;20041;-66
2023/08/21 01:22:17;;;;;;;26.85;12.32;;;;;;;14.35;100.00;102258.66;10456010;28;20059;-66
2023/08/21 01:27:21;;;;;;;16.83;9.07;;;;;;;14.32;100.00;102266.38;10475310;28;20040;-66
2023/08/21 01:32:27;;;;;;;17.10;8.90;;;;;;;14.18;100.00;102256.66;10462099;28;20043;-67
2023/08/21 01:37:28;;;;;;;18.73;9.88;;;;;;;14.24;100.00;102263.97;10456777;28;20049;-67
2023/08/21 01:42:28;;;;;;;22.08;9.25;;;;;;;14.20;100.00;102265.56;10452239;28;20048;-67
2023/08/21 01:47:29;;;;;;;18.05;8.88;;;;;;;14.13;100.00;102273.97;10482550;28;20037;-66
2023/08/21 01:52:29;;;;;;;19.40;9.07;;;;;;;14.08;100.00;102275.81;10471916;28;20108;-67
2023/08/21 01:57:30;;;;;;;22.08;8.32;;;;;;;13.99;100.00;102282.81;10485447;28;20036;-66
2023/08/21 02:02:30;;;;;;;13.25;7.22;;;;;;;13.92;100.00;102281.00;10480950;28;20075;-67
2023/08/21 02:07:31;;;;;;;15.20;6.95;;;;;;;13.90;100.00;102280.41;10482463;28;20044;-66
2023/08/21 02:12:31;;;;;;;13.25;6.97;;;;;;;13.81;100.00;102286.53;10475519;28;20056;-68
2023/08/21 02:17:32;;;;;;;11.73;6.70;;;;;;;13.74;100.00;102281.13;10485979;28;20045;-66
2023/08/21 02:22:32;;;;;;;10.57;6.40;;;;;;;13.67;100.00;102281.25;10467660;28;20101;-67
2023/08/21 02:27:33;;;;;;;11.88;6.65;;;;;;;13.58;100.00;102287.38;10472024;28;20037;-67
2023/08/21 02:32:34;;;;;;;10.57;5.95;;;;;;;13.54;100.00;102281.50;10482232;28;20064;-67
2023/08/21 02:37:38;;;;;;;11.27;7.97;;;;;;;13.53;100.00;102279.81;10454986;28;20043;-67
2023/08/21 02:42:39;;;;;;;11.48;8.13;;;;;;;13.56;100.00;102286.78;10483225;28;20056;-67
2023/08/21 02:47:40;;;;;;;10.27;7.13;;;;;;;13.48;100.00;102294.38;10478116;28;20037;-67
2023/08/21 02:52:40;;;;;;;10.07;6.60;;;;;;;13.38;100.00;102282.22;10484882;28;20044;-66
2023/08/21 02:57:41;;;;;;;10.75;6.15;;;;;;;13.37;100.00;102291.59;10482318;28;20037;-67
2023/08/21 03:02:43;;;;;;;7.28;5.93;;;;;;;13.32;100.00;102295.06;10482007;28;20109;-67
2023/08/21 03:07:43;;;;;;;9.60;5.85;;;;;;;13.24;100.00;102289.84;10477554;28;20538;-66
2023/08/21 03:12:44;;;;;;;8.18;6.13;;;;;;;13.17;100.00;102289.97;10481134;28;20040;-66
2023/08/21 03:17:44;;;;;;;6.22;5.15;;;;;;;13.17;100.00;102302.94;10476870;28;20041;-66
2023/08/21 03:22:45;;;;;;;7.15;5.57;;;;;;;13.10;100.00;102290.09;10479860;28;20064;-66
2023/08/21 03:27:49;;;;;;;9.02;6.05;;;;;;;13.12;100.00;102290.69;10477406;28;20052;-67
2023/08/21 03:32:49;;;;;;;10.70;5.68;;;;;;;13.17;100.00;102280.81;10480075;28;20063;-66
2023/08/21 03:37:50;;;;;;;8.20;5.65;;;;;;;13.12;100.00;102279.63;10482248;28;20102;-67
2023/08/21 03:42:50;;;;;;;8.40;6.20;;;;;;;12.98;100.00;102269.00;10473409;28;20044;-66
2023/08/21 03:47:50;;;;;;;9.60;6.63;;;;;;;12.98;100.00;102266.22;10483194;28;20041;-66
2023/08/21 03:52:51;;;;;;;11.05;6.28;;;;;;;12.95;100.00;102266.72;10472395;28;20049;-66
2023/08/21 03:57:51;;;;;;;10.20;6.30;;;;;;;12.85;100.00;102261.75;10461320;28;20062;-66
2023/08/21 04:02:52;;;;;;;10.57;6.10;;;;;;;12.86;100.00;102268.97;10475832;28;20271;-67
2023/08/21 04:07:52;;;;;;;9.18;6.35;;;;;;;12.79;100.00;102263.53;10467129;28;20042;-66
2023/08/21 04:12:53;;;;;;;13.68;7.25;;;;;;;12.78;100.00;102272.06;10475120;28;20044;-66
2023/08/21 04:17:53;;;;;;;10.57;7.13;;;;;;;12.78;100.00;102266.53;10479455;28;20029;-66
2023/08/21 04:22:54;;;;;;;10.95;6.07;;;;;;;12.74;100.00;102273.63;10474677;28;20447;-67
2023/08/21 04:27:54;;;;;;;9.20;6.10;;;;;;;12.68;100.00;102276.22;10475781;28;20161;-67
2023/08/21 04:32:55;;;;;;;11.20;5.90;;;;;;;12.67;100.00;102282.84;10477143;28;20526;-65
2023/08/21 04:37:55;;;;;;;12.30;5.55;;;;;;;12.65;100.00;102275.84;10470936;28;20045;-67
2023/08/21 04:42:56;;;;;;;7.35;5.28;;;;;;;12.69;100.00;102279.81;10478801;28;20104;-67
2023/08/21 04:47:56;;;;;;;9.82;5.20;;;;;;;12.70;100.00;102270.47;10470056;28;20051;-67
2023/08/21 04:52:57;;;;;;;13.65;5.38;;;;;;;12.71;100.00;102275.78;10479078;28;20028;-67
2023/08/21 04:57:57;;;;;;;12.15;5.97;;;;;;;12.76;100.00;102282.53;10472617;28;20033;-67
2023/08/21 05:02:58;;;;;;;8.20;6.07;;;;;;;12.85;100.00;102300.44;10452663;28;20319;-67
2023/08/21 05:07:58;;;;;;;11.98;6.10;;;;;;;12.88;100.00;102270.41;10474123;28;20316;-67
2023/08/21 05:12:59;;;;;;;12.93;6.53;;;;;;;13.04;100.00;102274.44;10473308;28;20045;-67
2023/08/21 05:17:59;;;;;;;9.00;6.20;;;;;;;13.12;100.00;102276.88;10476667;28;20492;-67
2023/08/21 05:22:59;;;;;;;13.85;6.82;;;;;;;13.17;100.00;102283.56;10477516;28;20057;-67
2023/08/21 05:28:00;;;;;;;13.98;7.50;;;;;;;13.21;100.00;102277.34;10470397;28;20074;-67
2023/08/21 05:33:01;;;;;;;8.63;7.13;;;;;;;13.34;100.00;102281.84;10468341;28;20032;-67
2023/08/21 05:38:05;;;;;;;12.98;8.52;;;;;;;13.43;100.00;102279.56;10448556;28;20116;-67
2023/08/21 05:43:06;;;;;;;12.68;10.48;;;;;;;13.51;100.00;102282.81;10432170;28;20036;-67
2023/08/21 05:48:06;;;;;;;17.65;13.50;;;;;;;13.74;100.00;102286.66;10428443;28;20042;-67
2023/08/21 05:53:07;;;;;;;18.27;13.23;;;;;;;14.07;100.00;102286.03;10436165;28;20036;-67
2023/08/21 05:58:07;;;;;;;18.15;10.82;;;;;;;14.49;100.00;102293.28;10427004;28;20059;-67
2023/08/21 06:03:08;;;;;;;13.98;8.40;;;;;;;14.80;100.00;102291.13;10429955;28;20417;-67
2023/08/21 06:08:08;;;;;;;13.75;8.00;;;;;;;15.06;100.00;102298.84;10426090;28;20490;-66
2023/08/21 06:13:09;;;;;;;12.25;7.07;;;;;;;15.35;100.00;102296.00;10436748;28;20076;-67
2023/08/21 06:18:09;;;;;;;10.55;6.50;;;;;;;15.68;100.00;102303.47;10432243;28;20034;-67
2023/08/21 06:23:10;;;;;;;13.52;5.20;;;;;;;15.99;100.00;102301.19;10422551;28;20128;-67
2023/08/21 06:28:11;;;;;;;8.77;5.22;;;;;;;16.32;100.00;102316.09;10431962;28;20560;-67
2023/08/21 06:33:11;;;;;;;8.98;4.05;;;;;;;16.58;100.00;102325.59;10479203;28;20101;-66
2023/08/21 06:38:12;;;;;;;9.13;4.10;;;;;;;16.87;100.00;102329.03;10448539;28;20044;-66
2023/08/21 06:43:12;;;;;;;8.30;3.50;;;;;;;17.13;100.00;102332.88;10433996;28;20049;-66
2023/08/21 06:48:13;;;;;;;8.00;2.90;;;;;;;17.47;100.00;102338.22;10440416;28;20098;-67
2023/08/21 06:53:13;;;;;;;6.05;2.35;;;;;;;17.77;100.00;102334.00;10415689;28;20053;-67
2023/08/21 06:58:14;;;;;;;5.97;2.42;;;;;;;18.04;100.00;102330.31;10437254;28;20037;-67
2023/08/21 07:03:14;;;;;;;5.07;1.65;;;;;;;18.30;100.00;102340.50;10417461;28;20092;-67
2023/08/21 07:08:15;;;;;;;3.83;1.15;;;;;;;18.48;100.00;102329.97;10421309;28;20285;-66
2023/08/21 07:13:15;;;;;;;4.32;1.30;;;;;;;18.76;100.00;102331.47;10437513;28;20037;-68
2023/08/21 07:18:16;;;;;;;4.47;2.00;;;;;;;18.97;100.00;102326.81;10436565;28;20045;-67
2023/08/21 07:23:16;;;;;;;6.05;1.23;;;;;;;19.07;100.00;102321.25;10462370;28;20037;-68
2023/08/21 07:28:16;;;;;;;5.85;1.60;;;;;;;19.19;100.00;102320.16;10470899;28;20048;-67
2023/08/21 07:33:17;;;;;;;3.85;1.05;;;;;;;19.22;100.00;102306.47;10463846;28;20041;-67
2023/08/21 07:38:17;;;;;;;4.15;0.90;;;;;;;19.44;100.00;102322.13;10462689;28;20546;-68
2023/08/21 07:43:18;;;;;;;4.72;1.10;;;;;;;19.64;100.00;102322.13;10468843;28;20041;-67
2023/08/21 07:48:18;;;;;;;5.78;1.48;;;;;;;19.82;100.00;102326.31;10465117;28;20040;-67
2023/08/21 07:53:19;;;;;;;3.28;1.80;;;;;;;19.92;100.00;102320.69;10472715;28;20036;-68
2023/08/21 07:58:20;;;;;;;8.63;1.85;;;;;;;20.07;100.00;102325.44;10470954;28;20450;-68
2023/08/21 08:03:20;;;;;;;5.78;1.98;;;;;;;20.22;100.00;102313.38;10474782;28;20111;-67
2023/08/21 08:08:20;;;;;;;2.53;1.30;;;;;;;20.48;100.00;102327.25;10471844;28;20029;-66
2023/08/21 08:13:21;;;;;;;5.05;1.17;;;;;;;20.67;100.00;102324.66;10460902;28;20056;-68
2023/08/21 08:18:22;;;;;;;4.55;0.88;;;;;;;20.85;100.00;102321.22;10466805;28;20044;-68
2023/08/21 08:23:23;;;;;;;3.22;0.60;;;;;;;20.99;100.00;102315.81;10473105;28;20053;-67
2023/08/21 08:28:23;;;;;;;2.55;1.00;;;;;;;21.26;100.00;102303.31;10479986;28;20535;-67
2023/08/21 08:33:24;;;;;;;8.68;1.95;;;;;;;21.49;100.00;102301.75;10476995;28;20037;-68
2023/08/21 08:38:24;;;;;;;5.28;1.00;;;;;;;21.70;100.00;102308.81;10471789;28;20052;-67
2023/08/21 08:43:25;;;;;;;5.32;1.33;;;;;;;21.88;100.00;102298.00;10472394;28;20036;-66
2023/08/21 08:48:26;;;;;;;4.72;1.00;;;;;;;22.11;100.00;102301.94;10475271;28;20036;-65
2023/08/21 08:53:28;;;;;;;4.72;0.90;;;;;;;22.40;100.00;102303.88;10469481;28;20059;-66
2023/08/21 08:58:29;;;;;;;3.20;0.70;;;;;;;22.46;100.00;102283.88;10466821;28;20059;-66
2023/08/21 09:03:29;;;;;;;1.02;0.47;;;;;;;22.68;100.00;102280.47;10475502;28;20047;-66
2023/08/21 09:08:30;;;;;;;3.28;1.17;;;;;;;22.93;100.00;102289.66;10475802;28;20043;-66
2023/08/21 09:13:31;;;;;;;2.35;0.80;;;;;;;23.20;100.00;102282.53;10478443;28;20094;-67
2023/08/21 09:18:34;;;;;;;1.48;0.60;;;;;;;23.44;100.00;102288.00;10471471;28;20041;-66
2023/08/21 09:23:34;;;;;;;6.53;0.93;;;;;;;23.51;100.00;102280.84;10478286;28;20064;-67
2023/08/21 09:28:35;;;;;;;2.92;0.98;;;;;;;23.48;100.00;102280.63;10427426;28;20041;-66
2023/08/21 09:33:35;;;;;;;1.77;0.90;;;;;;;23.62;100.00;102287.13;10412421;28;20069;-64
2023/08/21 09:38:38;;;;;;;2.00;0.65;;;;;;;23.74;100.00;102264.97;10433402;28;20045;-66
2023/08/21 09:43:42;;;;;;;4.38;0.50;;;;;;;23.57;100.00;102242.25;10478327;28;20409;-66
2023/08/21 09:48:44;;;;;;;0.85;0.43;;;;;;;23.91;100.00;102261.56;10471929;28;20044;-66
2023/08/21 09:53:45;;;;;;;3.05;0.60;;;;;;;24.10;100.00;102255.00;10429008;28;20045;-66
2023/08/21 09:58:49;;;;;;;3.72;0.70;;;;;;;24.05;100.00;102241.88;10424804;28;20037;-66
2023/08/21 10:03:50;;;;;;;2.30;0.73;;;;;;;24.26;100.00;102247.91;10453129;28;20033;-67
2023/08/21 10:08:53;;;;;;;2.80;0.98;;;;;;;24.47;100.00;102258.72;10441905;28;20032;-66
2023/08/21 10:13:53;;;;;;;2.55;0.50;;;;;;;24.72;100.00;102240.44;10461684;28;20065;-66
2023/08/21 10:18:54;;;;;;;2.45;1.02;;;;;;;24.97;100.00;102244.63;10444196;28;20044;-65
2023/08/21 10:23:54;;;;;;;1.38;0.40;;;;;;;24.93;100.00;102240.81;10483855;28;20033;-66
2023/08/21 10:28:59;;;;;;;4.97;0.60;;;;;;;24.82;100.00;102222.47;10470854;28;20102;-67
2023/08/21 10:34:01;;;;;;;5.00;0.63;;;;;;;25.10;100.00;102243.75;10481487;28;20055;-65
2023/08/21 10:39:01;;;;;;;4.65;0.77;;;;;;;25.53;100.00;102234.75;10434235;28;20048;-66
2023/08/21 10:44:02;;;;;;;0.75;0.40;;;;;;;25.62;100.00;102236.78;10429382;28;20494;-66
2023/08/21 10:49:03;;;;;;;3.60;0.65;;;;;;;25.73;100.00;102219.25;10416356;28;20041;-66
2023/08/21 10:54:13;;;;;;;6.18;0.70;;;;;;;25.78;100.00;102219.13;10426547;28;20056;-66
2023/08/21 10:59:14;;;;;;;0.90;0.40;;;;;;;25.81;98.33;102206.34;10410723;28;20174;-67
2023/08/21 11:04:14;;;;;;;1.35;0.68;;;;;;;26.01;96.08;102210.59;10400504;28;20090;-66
2023/08/21 11:09:16;;;;;;;1.60;0.50;;;;;;;26.34;93.23;102216.63;10448688;28;20131;-67
2023/08/21 11:14:16;;;;;;;2.40;0.40;;;;;;;26.75;91.75;102212.53;10454697;28;20049;-66
2023/08/21 11:19:17;;;;;;;3.72;0.60;;;;;;;26.67;89.75;102204.91;10463066;28;20049;-67
2023/08/21 11:24:17;;;;;;;1.85;0.45;;;;;;;26.66;89.28;102208.88;10468091;28;20036;-66
2023/08/21 11:29:18;;;;;;;1.23;0.40;;;;;;;26.70;91.11;102218.34;10480286;28;20092;-66
2023/08/21 11:34:19;;;;;;;2.83;0.68;;;;;;;26.48;89.74;102212.81;10478062;28;20112;-66
2023/08/21 11:39:20;;;;;;;9.82;0.88;;;;;;;26.83;87.33;102208.06;10474370;28;20124;-66
2023/08/21 11:44:20;;;;;;;1.92;0.70;;;;;;;27.19;86.99;102215.31;10472544;28;20032;-66
2023/08/21 11:49:22;;;;;;;2.60;0.60;;;;;;;27.59;87.20;102206.56;10477583;28;20061;-64
2023/08/21 11:54:22;;;;;;;3.22;0.65;;;;;;;27.22;88.00;102202.50;10477581;28;20048;-67
2023/08/21 11:59:23;;;;;;;3.72;0.80;;;;;;;27.63;84.40;102201.06;10471649;28;20069;-66
2023/08/21 12:04:24;;;;;;;1.85;0.60;;;;;;;28.49;80.75;102182.78;10479234;28;20040;-65
2023/08/21 12:09:25;;;;;;;2.05;0.40;;;;;;;29.54;82.04;102188.25;10427785;28;20044;-67
2023/08/21 12:14:27;;;;;;;3.67;0.60;;;;;;;30.31;77.47;102173.34;10473924;28;20037;-66
2023/08/21 12:19:27;;;;;;;1.77;0.40;;;;;;;30.89;72.73;102158.00;10466769;28;20536;-67
2023/08/21 12:24:28;;;;;;;1.02;0.30;;;;;;;30.82;72.34;102154.91;10464119;28;20048;-67
2023/08/21 12:29:28;;;;;;;2.22;0.60;;;;;;;31.37;71.68;102158.88;10464574;28;20033;-67
2023/08/21 12:34:30;;;;;;;2.47;0.50;;;;;;;31.21;66.66;102140.97;10461613;28;20104;-67
2023/08/21 12:39:30;;;;;;;1.27;0.40;;;;;;;31.94;64.86;102134.69;10461439;28;20052;-66
2023/08/21 12:44:31;;;;;;;2.83;0.68;;;;;;;32.28;64.65;102140.75;10473886;28;20057;-67
2023/08/21 12:49:31;;;;;;;2.38;0.50;;;;;;;32.31;59.70;102128.63;10477217;28;20060;-68
2023/08/21 12:54:32;;;;;;;2.58;0.50;;;;;;;32.09;61.02;102146.44;10473135;28;20052;-67
2023/08/21 12:59:32;;;;;;;1.77;0.40;;;;;;;30.88;63.42;102142.09;10468460;28;20049;-66
2023/08/21 13:04:33;;;;;;;4.13;0.57;;;;;;;31.27;63.05;102130.97;10468806;28;20041;-67
2023/08/21 13:09:33;;;;;;;3.90;0.60;;;;;;;32.41;63.67;102138.59;10468421;28;20045;-69
2023/08/21 13:14:34;;;;;;;1.60;0.63;;;;;;;32.75;60.14;102128.31;10472423;28;20029;-67
2023/08/21 13:19:34;;;;;;;1.00;0.50;;;;;;;32.05;59.26;102120.72;10474631;28;20059;-67
2023/08/21 13:24:35;;;;;;;2.42;1.20;;;;;;;31.36;63.90;102140.97;10479141;28;20114;-67
2023/08/21 13:29:35;;;;;;;3.08;0.50;;;;;;;31.79;60.97;102132.69;10464739;28;20041;-67
2023/08/21 13:34:36;;;;;;;2.35;0.43;;;;;;;31.72;61.24;102126.84;10478161;28;20063;-67
2023/08/21 13:39:36;;;;;;;3.25;1.75;;;;;;;30.08;61.17;102123.91;10477547;28;20056;-67
2023/08/21 13:44:37;;;;;;;3.08;0.80;;;;;;;29.73;64.67;102138.63;10483689;28;20044;-67
2023/08/21 13:49:37;;;;;;;2.42;0.50;;;;;;;30.69;61.67;102115.16;10478627;28;20052;-67
2023/08/21 13:54:38;;;;;;;2.83;0.73;;;;;;;30.96;66.91;102129.75;10477905;28;20036;-67
2023/08/21 13:59:38;;;;;;;1.65;0.52;;;;;;;30.91;61.75;102105.25;10482543;28;20097;-67
2023/08/21 14:04:38;;;;;;;2.95;0.50;;;;;;;30.90;61.23;102097.06;10484944;28;20033;-67
2023/08/21 14:09:39;;;;;;;2.72;0.40;;;;;;;31.71;60.29;102091.00;10478122;28;20140;-67
2023/08/21 14:14:39;;;;;;;1.00;0.40;;;;;;;32.50;55.16;102072.81;10471531;28;20055;-68
2023/08/21 14:19:40;;;;;;;1.55;0.60;;;;;;;33.33;55.90;102076.00;10479942;28;20037;-67
2023/08/21 14:24:40;;;;;;;3.25;0.70;;;;;;;33.64;56.21;102079.78;10482915;28;20390;-67
2023/08/21 14:29:44;;;;;;;1.33;0.82;;;;;;;33.71;53.57;102057.03;10482856;28;20059;-67
2023/08/21 14:34:45;;;;;;;1.98;0.55;;;;;;;33.83;56.12;102064.53;10432104;28;20041;-67
2023/08/21 14:39:46;;;;;;;2.03;1.02;;;;;;;33.33;56.82;102072.34;10439791;28;20056;-67
2023/08/21 14:44:46;;;;;;;2.17;0.70;;;;;;;31.40;56.10;102072.78;10444563;28;20060;-67
2023/08/21 14:49:46;;;;;;;1.20;0.63;;;;;;;30.36;58.71;102072.81;10434370;28;20393;-67
2023/08/21 14:54:50;;;;;;;3.47;0.50;;;;;;;31.16;57.77;102062.44;10428172;28;20048;-67
2023/08/21 14:59:51;;;;;;;4.63;0.70;;;;;;;31.92;56.86;102065.06;10436560;28;20037;-67
2023/08/21 15:04:51;;;;;;;1.65;0.45;;;;;;;32.52;59.04;102067.56;10433032;28;20619;-66
2023/08/21 15:09:52;;;;;;;1.30;0.60;;;;;;;31.40;58.41;102061.41;10437754;28;20063;-66
2023/08/21 15:14:52;;;;;;;0.82;0.30;;;;;;;30.78;60.00;102063.84;10440806;28;20091;-66
2023/08/21 15:19:53;;;;;;;2.70;0.60;;;;;;;31.18;58.25;102052.31;10437128;28;20367;-66
2023/08/21 15:24:53;;;;;;;3.17;1.15;;;;;;;31.44;58.83;102056.66;10435087;28;20041;-67
2023/08/21 15:29:54;;;;;;;4.15;0.80;;;;;;;30.82;58.51;102046.88;10440424;28;20041;-66
2023/08/21 15:34:54;;;;;;;0.80;0.50;;;;;;;30.63;63.75;102056.94;10433954;28;20044;-67
2023/08/21 15:39:55;;;;;;;1.83;0.55;;;;;;;30.52;59.54;102050.94;10427898;28;20144;-64
2023/08/21 15:44:55;;;;;;;1.92;0.60;;;;;;;30.92;58.89;102046.34;10419665;28;20045;-67
2023/08/21 15:49:56;;;;;;;5.70;0.80;;;;;;;31.05;58.19;102033.72;10423890;28;20037;-67
2023/08/21 15:54:56;;;;;;;3.42;1.10;;;;;;;31.54;57.60;102038.97;10423280;28;20038;-67
2023/08/21 15:59:57;;;;;;;1.95;0.60;;;;;;;31.27;58.50;102034.22;10424898;28;20091;-67
2023/08/21 16:04:57;;;;;;;1.58;0.85;;;;;;;31.04;59.88;102037.75;10415880;28;20080;-66
2023/08/21 16:09:58;;;;;;;6.40;1.25;;;;;;;30.11;67.93;102074.91;10419301;28;20052;-66
2023/08/21 16:14:58;;;;;;;3.85;1.45;;;;;;;28.37;74.74;102084.38;10418092;28;20113;-67
2023/08/21 16:20:04;;;;;;;7.28;1.85;;;;;;;26.96;85.70;102096.81;10418421;28;20044;-68
2023/08/21 16:25:05;;;;;;;;;;;;;;;25.96;99.48;102098.72;10431575;28;20171;-65
2023/08/21 16:30:07;;;;;;;7.82;2.25;;;;;;;25.39;100.00;102095.88;10421204;28;19921;-66
2023/08/21 16:35:07;;;;;;;7.85;2.40;;;;;;;25.23;100.00;102083.38;10426052;28;20180;-67
2023/08/21 16:40:08;;;;;;;7.80;2.90;;;;;;;25.36;100.00;102083.28;10429827;28;20071;-66
2023/08/21 16:45:13;;;;;;;6.63;3.30;;;;;;;25.58;100.00;102107.72;10430289;28;20060;-66
2023/08/21 16:50:14;;;;;;;11.30;2.97;;;;;;;25.42;100.00;102105.66;10439751;28;20133;-67
2023/08/21 16:55:15;;;;;;;12.32;4.03;;;;;;;25.07;100.00;102109.13;10431840;28;20125;-65
2023/08/21 17:00:15;;;;;;;11.52;3.50;;;;;;;24.90;100.00;102109.84;10434590;28;20041;-67
2023/08/21 17:05:16;;;;;;;9.25;3.80;;;;;;;24.94;100.00;102108.06;10438104;28;20084;-66
2023/08/21 17:10:17;;;;;;;8.25;3.40;;;;;;;24.80;100.00;102098.84;10436535;28;20517;-66
2023/08/21 17:15:17;;;;;;;6.68;2.97;;;;;;;24.47;100.00;102112.34;10444559;28;20041;-65
2023/08/21 17:20:19;;;;;;;8.52;2.22;;;;;;;24.10;100.00;102105.91;10428077;28;20041;-66
2023/08/21 17:25:20;;;;;;;6.40;1.90;;;;;;;23.72;100.00;102103.34;10430402;28;20045;-67
2023/08/21 17:30:20;;;;;;;4.13;2.10;;;;;;;23.45;100.00;102099.41;10435866;28;20029;-67
2023/08/21 17:35:21;;;;;;;5.47;1.23;;;;;;;23.27;100.00;102100.34;10437482;28;20068;-67
2023/08/21 17:40:21;;;;;;;8.45;2.38;;;;;;;22.98;100.00;102090.16;10434889;28;20156;-66
2023/08/21 17:45:22;;;;;;;8.77;1.70;;;;;;;22.67;100.00;102093.53;10436894;28;20395;-67
2023/08/21 17:50:23;;;;;;;8.95;2.70;;;;;;;22.27;100.00;102059.41;10435413;28;20124;-67
2023/08/21 17:55:24;;;;;;;3.53;1.35;;;;;;;22.43;100.00;102095.63;10440939;28;20037;-67
2023/08/21 18:00:24;;;;;;;4.95;1.80;;;;;;;22.27;100.00;102098.69;10441850;28;20049;-67
2023/08/21 18:05:26;;;;;;;5.82;1.55;;;;;;;22.09;100.00;102119.13;10434550;28;20399;-67
2023/08/21 18:10:26;;;;;;;6.35;1.70;;;;;;;21.86;100.00;102116.06;10435519;28;20053;-67
2023/08/21 18:15:27;;;;;;;6.70;1.45;;;;;;;21.63;100.00;102105.72;10436200;28;20044;-67
2023/08/21 18:20:50;;;;;;;5.40;1.52;;;;;;;21.44;100.00;102105.69;10440802;28;20048;-67
2023/08/21 18:25:51;;;;;;;5.40;1.83;;;;;;;21.29;100.00;102115.03;10476268;28;20139;-67
2023/08/21 18:30:53;;;;;;;8.20;3.10;;;;;;;21.08;100.00;102106.84;10431622;28;20037;-67
2023/08/21 18:35:54;;;;;;;10.02;3.58;;;;;;;20.92;100.00;102108.16;10440412;28;20052;-67
2023/08/21 18:40:55;;;;;;;7.05;2.58;;;;;;;20.72;100.00;102112.81;10446858;28;20041;-67
2023/08/21 18:45:56;;;;;;;9.32;2.50;;;;;;;20.54;100.00;102127.47;10422233;28;20041;-67
2023/08/21 18:50:56;;;;;;;5.80;2.55;;;;;;;20.41;100.00;102125.34;10440385;28;20033;-66
2023/08/21 18:55:57;;;;;;;6.72;2.85;;;;;;;20.15;100.00;102123.56;10442283;28;20041;-66
2023/08/21 19:00:57;;;;;;;4.68;1.42;;;;;;;20.10;100.00;102136.72;10429092;28;20056;-66
2023/08/21 19:05:59;;;;;;;5.82;1.77;;;;;;;19.99;100.00;102129.50;10438060;28;20094;-66
2023/08/21 19:11:00;;;;;;;4.30;0.93;;;;;;;19.75;100.00;102113.41;10441007;28;20076;-67
2023/08/21 19:16:19;;;;;;;5.97;1.77;;;;;;;19.69;100.00;102142.47;10456543;28;20044;-66
2023/08/21 19:21:38;;;;;;;3.67;1.05;;;;;;;19.53;100.00;102145.31;10445585;28;20050;-66
2023/08/21 19:26:57;;;;;;;3.65;0.93;;;;;;;19.38;100.00;102145.34;10481539;28;20040;-66
2023/08/21 19:32:17;;;;;;;4.78;1.15;;;;;;;19.25;100.00;102155.16;10443070;28;20098;-66
2023/08/21 19:37:36;;;;;;;3.38;1.90;;;;;;;19.20;100.00;102140.38;10483809;28;20494;-66
2023/08/21 19:42:55;;;;;;;2.33;1.02;;;;;;;19.10;100.00;102144.84;10435030;28;20037;-66
2023/08/21 19:47:55;;;;;;;8.60;1.60;;;;;;;18.98;100.00;102133.16;10441203;28;20502;-66
2023/08/21 19:52:56;;;;;;;3.25;1.10;;;;;;;18.84;100.00;102137.63;10444104;28;20108;-67
2023/08/21 19:57:56;;;;;;;7.82;1.75;;;;;;;18.70;100.00;102142.88;10438493;28;20037;-66
2023/08/21 20:02:59;;;;;;;7.10;1.33;;;;;;;18.61;100.00;102147.34;10423693;28;20060;-66
2023/08/21 20:07:59;;;;;;;3.90;0.98;;;;;;;18.53;100.00;102146.78;10430253;28;20335;-66
2023/08/21 20:13:00;;;;;;;4.03;1.50;;;;;;;18.43;100.00;102155.13;10440007;28;20037;-67
2023/08/21 20:18:01;;;;;;;4.22;1.00;;;;;;;18.31;100.00;102152.63;10428457;28;20067;-68
2023/08/21 20:23:01;;;;;;;2.50;1.15;;;;;;;18.19;100.00;102143.66;10432497;28;20041;-69
2023/08/21 20:28:02;;;;;;;9.85;2.22;;;;;;;18.08;100.00;102141.94;10416099;28;20109;-68
2023/08/21 20:33:03;;;;;;;5.13;1.40;;;;;;;17.99;100.00;102138.84;10430152;28;20041;-68
2023/08/21 20:38:05;;;;;;;2.90;1.00;;;;;;;17.88;100.00;102146.34;10438711;28;25688;-67
2023/08/21 20:43:06;;;;;;;3.00;1.17;;;;;;;17.80;100.00;102141.28;10438278;28;20049;-69
2023/08/21 20:48:06;;;;;;;5.68;1.40;;;;;;;17.68;100.00;102143.44;10420172;28;20420;-67
2023/08/21 20:53:07;;;;;;;2.92;1.38;;;;;;;17.57;100.00;102147.28;10439349;28;20044;-67
2023/08/21 20:58:07;;;;;;;3.28;1.50;;;;;;;17.55;100.00;102133.66;10448763;28;20080;-67
2023/08/21 21:03:08;;;;;;;4.55;2.13;;;;;;;17.57;100.00;102131.44;10429830;28;20049;-67
2023/08/21 21:08:08;;;;;;;3.03;1.90;;;;;;;17.59;100.00;102122.78;10432383;28;20028;-68
2023/08/21 21:13:09;;;;;;;4.47;1.70;;;;;;;17.58;100.00;102123.91;10427194;28;20073;-66
2023/08/21 21:18:09;;;;;;;5.05;2.05;;;;;;;17.67;100.00;102125.91;10431242;28;20123;-67
2023/08/21 21:23:10;;;;;;;3.08;1.63;;;;;;;17.70;100.00;102130.09;10442878;28;20049;-66
2023/08/21 21:28:10;;;;;;;4.97;2.20;;;;;;;17.72;100.00;102139.00;10436426;28;20037;-67
2023/08/21 21:33:11;;;;;;;8.05;2.05;;;;;;;17.68;100.00;102138.69;10431169;28;20045;-67
2023/08/21 21:38:11;;;;;;;4.03;2.53;;;;;;;17.63;100.00;102135.06;10421980;28;20406;-66
2023/08/21 21:43:12;;;;;;;4.72;1.83;;;;;;;17.53;100.00;102135.88;10433772;28;20475;-67
2023/08/21 21:48:12;;;;;;;3.85;2.30;;;;;;;17.46;100.00;102129.69;10404502;28;20080;-67
2023/08/21 21:53:13;;;;;;;4.13;1.80;;;;;;;17.31;100.00;102110.97;10419499;28;20136;-66
2023/08/21 21:58:13;;;;;;;6.10;2.13;;;;;;;17.21;100.00;102122.03;10416794;28;20041;-68
2023/08/21 22:03:14;;;;;;;8.45;2.15;;;;;;;17.10;100.00;102105.25;10435482;28;20099;-67
2023/08/21 22:08:15;;;;;;;3.92;2.05;;;;;;;17.08;100.00;102121.38;10424664;28;20030;-67
2023/08/21 22:13:15;;;;;;;8.10;2.30;;;;;;;17.05;100.00;102119.16;10442002;28;20057;-67
2023/08/21 22:18:16;;;;;;;6.05;2.15;;;;;;;16.98;100.00;102118.53;10443451;28;20033;-67
2023/08/21 22:23:16;;;;;;;4.15;2.15;;;;;;;16.92;100.00;102102.91;10442915;28;20056;-68
2023/08/21 22:28:17;;;;;;;4.72;2.83;;;;;;;16.89;100.00;102098.72;10436130;28;20038;-66
2023/08/21 22:33:18;;;;;;;6.85;2.33;;;;;;;16.90;100.00;102094.00;10443060;28;20429;-66
2023/08/21 22:38:18;;;;;;;5.40;2.60;;;;;;;16.90;100.00;102088.44;10443896;28;22366;-67
2023/08/21 22:43:19;;;;;;;7.75;3.35;;;;;;;16.88;100.00;102087.88;10448918;28;20037;-67
2023/08/21 22:48:19;;;;;;;6.75;2.70;;;;;;;16.80;100.00;102072.47;10442651;28;20041;-67